Terminal Aerodrome Forecast
Issued by NWS

Home | Current Version | Previous Version | Text Only | Print | Product List | Glossary On
Versions: 1 2 3 4 5 6 7 8 9 10 11 12 13 14 15
701
FTUS44 KMAF 262322
TAFHOB
TAF
KHOB 262322Z 2700/2724 17008KT P6SM SCT080 BKN150
     FM270300 VRB03KT P6SM FEW080 BKN150=

USA.gov is the U.S. government's official web portal to all federal, state and local government web resources and services.